createdAt,value
2022-11-28T00:00:59.347Z,0
2022-11-28T00:02:05.559Z,0
2022-11-28T00:03:11.527Z,0
2022-11-28T00:04:17.707Z,0
2022-11-28T00:05:23.887Z,0
2022-11-28T00:06:29.065Z,0
2022-11-28T00:07:35.169Z,0
2022-11-28T00:08:41.261Z,0
2022-11-28T00:09:47.365Z,0
2022-11-28T00:10:53.466Z,0
2022-11-28T00:11:59.545Z,0
2022-11-28T00:13:05.636Z,0
2022-11-28T00:14:11.739Z,0
2022-11-28T00:15:17.832Z,0
2022-11-28T00:16:23.925Z,0
2022-11-28T00:17:30.014Z,0
2022-11-28T00:18:36.113Z,0
2022-11-28T00:19:42.198Z,0
2022-11-28T00:20:48.305Z,0
2022-11-28T00:21:54.374Z,0
2022-11-28T00:23:00.465Z,0
2022-11-28T00:24:06.557Z,0
2022-11-28T00:25:12.646Z,0
2022-11-28T00:26:18.748Z,0
2022-11-28T00:27:24.843Z,0
2022-11-28T00:28:30.943Z,0
2022-11-28T00:29:37.047Z,0
2022-11-28T00:30:43.136Z,0
2022-11-28T00:31:49.241Z,0
2022-11-28T00:32:55.345Z,0
2022-11-28T00:34:01.524Z,0
2022-11-28T00:35:07.688Z,0
2022-11-28T00:36:12.853Z,0
2022-11-28T00:37:18.950Z,0
2022-11-28T00:38:25.061Z,0
2022-11-28T00:39:31.128Z,0
2022-11-28T00:40:37.237Z,0
2022-11-28T00:41:43.319Z,0
2022-11-28T00:42:49.415Z,0
2022-11-28T00:43:55.494Z,0
2022-11-28T00:45:01.654Z,0
2022-11-28T00:46:07.683Z,0
2022-11-28T00:47:13.775Z,0
2022-11-28T00:48:19.861Z,0
2022-11-28T00:49:25.967Z,0
2022-11-28T00:50:32.064Z,0
2022-11-28T00:51:38.162Z,0
2022-11-28T00:52:44.248Z,0
2022-11-28T00:53:50.353Z,0
2022-11-28T00:54:56.431Z,0
2022-11-28T00:56:02.533Z,0
2022-11-28T00:57:08.656Z,0
2022-11-28T00:58:14.713Z,0
2022-11-28T00:59:20.938Z,0
2022-11-28T01:00:26.909Z,0
2022-11-28T01:01:32.996Z,0
2022-11-28T01:02:39.081Z,0
2022-11-28T01:03:45.250Z,0
2022-11-28T01:04:51.430Z,0
2022-11-28T01:05:57.655Z,0
2022-11-28T01:07:03.894Z,0
2022-11-28T01:08:09.931Z,0
2022-11-28T01:09:16.109Z,0
2022-11-28T01:10:22.301Z,0
2022-11-28T01:11:28.518Z,0
2022-11-28T01:12:34.623Z,0
2022-11-28T01:13:40.816Z,0
2022-11-28T01:14:46.967Z,0
2022-11-28T01:15:53.142Z,0
2022-11-28T01:16:59.434Z,0
2022-11-28T01:18:05.704Z,0
2022-11-28T01:19:10.921Z,0
2022-11-28T01:20:16.940Z,0
2022-11-28T01:21:23.042Z,0
2022-11-28T01:22:29.247Z,0
2022-11-28T01:23:35.336Z,0
2022-11-28T01:24:41.316Z,0
2022-11-28T01:25:47.416Z,0
2022-11-28T01:26:53.501Z,0
2022-11-28T01:27:59.605Z,0
2022-11-28T01:29:05.695Z,0
2022-11-28T01:30:11.785Z,0
2022-11-28T01:31:17.899Z,0
2022-11-28T01:32:23.961Z,0
2022-11-28T01:33:30.136Z,0
2022-11-28T01:34:36.195Z,0
2022-11-28T01:35:42.272Z,0
2022-11-28T01:36:48.375Z,0
2022-11-28T01:37:54.473Z,0
2022-11-28T01:39:00.605Z,0
2022-11-28T01:40:06.658Z,0
2022-11-28T01:41:12.759Z,0
2022-11-28T01:42:18.896Z,0
2022-11-28T01:43:24.939Z,0
2022-11-28T01:44:31.102Z,0
2022-11-28T01:45:37.136Z,0
2022-11-28T01:46:43.311Z,0
2022-11-28T01:47:48.478Z,0
2022-11-28T01:48:54.572Z,0
2022-11-28T01:50:00.665Z,0
2022-11-28T01:51:06.764Z,0
2022-11-28T01:52:12.884Z,0
2022-11-28T01:53:18.964Z,0
2022-11-28T01:54:25.062Z,0
2022-11-28T01:55:31.149Z,0
2022-11-28T01:56:37.241Z,0
2022-11-28T01:57:43.337Z,0
2022-11-28T01:58:49.427Z,0
2022-11-28T01:59:55.527Z,0
2022-11-28T02:01:01.630Z,0
2022-11-28T02:02:07.711Z,0
2022-11-28T02:03:13.812Z,0
2022-11-28T02:04:19.917Z,0
2022-11-28T02:05:26.030Z,0
2022-11-28T02:06:32.156Z,0
2022-11-28T02:07:38.207Z,0
2022-11-28T02:08:44.296Z,0
2022-11-28T02:09:50.391Z,0
2022-11-28T02:10:56.490Z,0
2022-11-28T02:12:02.584Z,0
2022-11-28T02:13:08.678Z,0
2022-11-28T02:14:14.833Z,0
2022-11-28T02:15:20.957Z,0
2022-11-28T02:16:26.139Z,0
2022-11-28T02:17:32.230Z,0
2022-11-28T02:18:38.323Z,0
2022-11-28T02:19:44.462Z,0
2022-11-28T02:20:50.505Z,0
2022-11-28T02:21:56.626Z,0
2022-11-28T02:23:02.701Z,0
2022-11-28T02:24:08.800Z,0
2022-11-28T02:25:14.890Z,0
2022-11-28T02:26:20.984Z,0
2022-11-28T02:27:27.076Z,0
2022-11-28T02:28:33.198Z,0
2022-11-28T02:29:39.266Z,0
2022-11-28T02:30:45.346Z,0
2022-11-28T02:31:51.443Z,0
2022-11-28T02:32:57.544Z,0
2022-11-28T02:34:03.687Z,0
2022-11-28T02:35:09.723Z,0
2022-11-28T02:36:15.828Z,0
2022-11-28T02:37:21.924Z,0
2022-11-28T02:38:28.006Z,0
2022-11-28T02:39:34.146Z,0
2022-11-28T02:40:40.202Z,0
2022-11-28T02:41:46.286Z,0
2022-11-28T02:42:52.395Z,0
2022-11-28T02:43:58.556Z,0
2022-11-28T02:45:04.747Z,0
2022-11-28T02:46:11.044Z,0
2022-11-28T02:47:16.076Z,0
2022-11-28T02:48:22.171Z,0
2022-11-28T02:49:28.260Z,0
2022-11-28T02:50:34.388Z,0
2022-11-28T02:51:40.440Z,0
2022-11-28T02:52:46.539Z,0
2022-11-28T02:53:52.626Z,0
2022-11-28T02:54:58.742Z,0
2022-11-28T02:56:04.838Z,0
2022-11-28T02:57:10.925Z,0
2022-11-28T02:58:17.036Z,0
2022-11-28T02:59:23.184Z,0
2022-11-28T03:00:29.198Z,0
2022-11-28T03:01:35.272Z,0
2022-11-28T03:02:41.360Z,0
2022-11-28T03:03:47.463Z,0
2022-11-28T03:04:53.567Z,0
2022-11-28T03:05:59.759Z,0
2022-11-28T03:07:05.734Z,0
2022-11-28T03:08:11.837Z,0
2022-11-28T03:09:17.970Z,0
2022-11-28T03:10:24.012Z,0
2022-11-28T03:11:30.209Z,0
2022-11-28T03:12:36.211Z,0
2022-11-28T03:13:42.298Z,0
2022-11-28T03:14:48.480Z,0
2022-11-28T03:15:53.652Z,0
2022-11-28T03:16:59.748Z,0
2022-11-28T03:18:05.836Z,0
2022-11-28T03:19:11.943Z,0
2022-11-28T03:20:18.034Z,0
2022-11-28T03:21:24.134Z,0
2022-11-28T03:22:30.232Z,0
2022-11-28T03:23:36.331Z,0
2022-11-28T03:24:42.423Z,0
2022-11-28T03:25:48.508Z,0
2022-11-28T03:26:54.600Z,0
2022-11-28T03:28:00.708Z,0
2022-11-28T03:29:06.771Z,0
2022-11-28T03:30:12.864Z,0
2022-11-28T03:31:18.945Z,0
2022-11-28T03:32:25.047Z,0
2022-11-28T03:33:31.197Z,0
2022-11-28T03:34:37.209Z,0
2022-11-28T03:35:43.313Z,0
2022-11-28T03:36:49.390Z,0
2022-11-28T03:37:55.479Z,0
2022-11-28T03:39:01.629Z,0
2022-11-28T03:40:07.676Z,0
2022-11-28T03:41:13.815Z,0
2022-11-28T03:42:19.956Z,0
2022-11-28T03:43:26.073Z,0
2022-11-28T03:44:31.226Z,0
2022-11-28T03:45:37.342Z,0
2022-11-28T03:46:43.387Z,0
2022-11-28T03:47:49.479Z,0
2022-11-28T03:48:55.639Z,0
2022-11-28T03:50:01.675Z,0
2022-11-28T03:51:07.818Z,0
2022-11-28T03:52:13.857Z,0
2022-11-28T03:53:19.956Z,0
2022-11-28T03:54:26.055Z,0
2022-11-28T03:55:32.139Z,0
2022-11-28T03:56:38.235Z,0
2022-11-28T03:57:44.339Z,0
2022-11-28T03:58:50.437Z,0
2022-11-28T03:59:56.530Z,0
2022-11-28T04:01:02.631Z,0
2022-11-28T04:02:08.723Z,0
2022-11-28T04:03:14.813Z,0
2022-11-28T04:04:20.908Z,0
2022-11-28T04:05:27.033Z,0
2022-11-28T04:06:33.176Z,0
2022-11-28T04:07:39.200Z,0
2022-11-28T04:08:45.284Z,0
2022-11-28T04:09:51.376Z,0
2022-11-28T04:10:57.541Z,0
2022-11-28T04:12:03.635Z,0
2022-11-28T04:13:09.798Z,0
2022-11-28T04:14:16.020Z,0
2022-11-28T04:15:22.147Z,0
2022-11-28T04:16:28.305Z,0
2022-11-28T04:17:34.472Z,0
2022-11-28T04:18:40.640Z,0
2022-11-28T04:19:46.803Z,0
2022-11-28T04:20:52.967Z,0
2022-11-28T04:21:59.136Z,0
2022-11-28T04:23:05.306Z,0
2022-11-28T04:24:11.500Z,0
2022-11-28T04:25:17.645Z,0
2022-11-28T04:26:23.955Z,0
2022-11-28T04:27:29.197Z,0
2022-11-28T04:28:35.289Z,0
2022-11-28T04:29:41.381Z,0
2022-11-28T04:30:47.466Z,0
2022-11-28T04:31:53.564Z,0
2022-11-28T04:32:59.667Z,0
2022-11-28T04:34:05.755Z,0
2022-11-28T04:35:11.836Z,0
2022-11-28T04:36:17.941Z,0
2022-11-28T04:37:24.083Z,0
2022-11-28T04:38:30.209Z,0
2022-11-28T04:39:36.295Z,0
2022-11-28T04:40:42.291Z,0
2022-11-28T04:41:48.379Z,0
2022-11-28T04:42:54.577Z,0
2022-11-28T04:44:00.667Z,0
2022-11-28T04:45:06.657Z,0
2022-11-28T04:46:12.758Z,0
2022-11-28T04:47:18.883Z,0
2022-11-28T04:48:24.935Z,0
2022-11-28T04:49:31.018Z,0
2022-11-28T04:50:37.182Z,0
2022-11-28T04:51:43.262Z,0
2022-11-28T04:52:49.315Z,0
2022-11-28T04:53:55.377Z,0
2022-11-28T04:55:01.577Z,0
2022-11-28T04:56:07.724Z,0
2022-11-28T04:57:13.890Z,0
2022-11-28T04:58:20.076Z,0
2022-11-28T04:59:26.254Z,0
2022-11-28T05:00:32.384Z,0
2022-11-28T05:01:38.553Z,0
2022-11-28T05:02:44.708Z,0
2022-11-28T05:03:50.873Z,0
2022-11-28T05:04:57.040Z,0
2022-11-28T05:06:03.227Z,0
2022-11-28T05:07:09.364Z,0
2022-11-28T05:08:15.550Z,0
2022-11-28T05:09:21.820Z,0
2022-11-28T05:10:27.070Z,0
2022-11-28T05:11:33.191Z,0
2022-11-28T05:12:39.285Z,0
2022-11-28T05:13:45.316Z,0
2022-11-28T05:14:51.414Z,0
2022-11-28T05:15:57.500Z,0
2022-11-28T05:17:03.639Z,0
2022-11-28T05:18:09.683Z,0
2022-11-28T05:19:15.785Z,0
2022-11-28T05:20:21.865Z,0
2022-11-28T05:21:27.950Z,0
2022-11-28T05:22:34.165Z,0
2022-11-28T05:23:40.135Z,0
2022-11-28T05:24:46.219Z,0
2022-11-28T05:25:52.337Z,0
2022-11-28T05:26:58.409Z,0
2022-11-28T05:28:04.490Z,0
2022-11-28T05:29:10.587Z,0
2022-11-28T05:30:16.679Z,0
2022-11-28T05:31:22.775Z,0
2022-11-28T05:32:28.848Z,0
2022-11-28T05:33:34.941Z,0
2022-11-28T05:34:41.022Z,0
2022-11-28T05:35:47.106Z,0
2022-11-28T05:36:53.227Z,0
2022-11-28T05:37:59.426Z,0
2022-11-28T05:39:05.564Z,0
2022-11-28T05:40:11.697Z,0
2022-11-28T05:41:17.862Z,0
2022-11-28T05:42:24.023Z,0
2022-11-28T05:43:30.242Z,0
2022-11-28T05:44:36.399Z,0
2022-11-28T05:45:42.519Z,0
2022-11-28T05:46:48.688Z,0
2022-11-28T05:47:54.852Z,0
2022-11-28T05:49:01.021Z,0
2022-11-28T05:50:07.183Z,0
2022-11-28T05:51:13.431Z,0
2022-11-28T05:52:19.640Z,0
2022-11-28T05:53:24.947Z,0
2022-11-28T05:54:31.179Z,0
2022-11-28T05:55:37.097Z,0
2022-11-28T05:56:43.181Z,0
2022-11-28T05:57:49.361Z,0
2022-11-28T05:58:55.339Z,0
2022-11-28T06:00:01.488Z,0
2022-11-28T06:01:07.481Z,0
2022-11-28T06:02:13.567Z,0
2022-11-28T06:03:19.708Z,0
2022-11-28T06:04:25.763Z,0
2022-11-28T06:05:31.868Z,0
2022-11-28T06:06:37.924Z,0
2022-11-28T06:07:44.003Z,0
2022-11-28T06:08:50.107Z,0
2022-11-28T06:09:56.197Z,4
2022-11-28T06:11:02.318Z,0
2022-11-28T06:12:08.394Z,0
2022-11-28T06:13:14.571Z,0
2022-11-28T06:14:20.741Z,0
2022-11-28T06:15:26.685Z,0
2022-11-28T06:16:32.708Z,0
2022-11-28T06:17:38.810Z,4
2022-11-28T06:18:44.988Z,1
2022-11-28T06:19:51.119Z,0
2022-11-28T06:20:57.183Z,1
2022-11-28T06:22:03.405Z,1
2022-11-28T06:23:09.485Z,5
2022-11-28T06:24:15.739Z,1
2022-11-28T06:25:21.793Z,3
2022-11-28T06:26:28.020Z,3
2022-11-28T06:27:34.254Z,6
2022-11-28T06:28:40.293Z,4
2022-11-28T06:29:46.420Z,4
2022-11-28T06:30:52.607Z,15
2022-11-28T06:31:58.751Z,11
2022-11-28T06:33:04.943Z,16
2022-11-28T06:34:11.108Z,12
2022-11-28T06:35:17.352Z,8
2022-11-28T06:36:22.607Z,12
2022-11-28T06:37:28.697Z,22
2022-11-28T06:38:34.760Z,23
2022-11-28T06:39:40.841Z,19
2022-11-28T06:40:46.942Z,22
2022-11-28T06:41:53.056Z,31
2022-11-28T06:42:59.108Z,44
2022-11-28T06:44:05.205Z,61
2022-11-28T06:45:11.354Z,63
2022-11-28T06:46:17.404Z,111
2022-11-28T06:47:23.482Z,128
2022-11-28T06:48:29.541Z,89
2022-11-28T06:49:35.608Z,98
2022-11-28T06:50:41.707Z,112
2022-11-28T06:51:47.869Z,109
2022-11-28T06:52:53.892Z,123
2022-11-28T06:54:00.005Z,136
2022-11-28T06:55:06.071Z,145
2022-11-28T06:56:12.161Z,158
2022-11-28T06:57:18.251Z,185
2022-11-28T06:58:24.395Z,211
2022-11-28T06:59:30.433Z,212
2022-11-28T07:00:36.537Z,222
2022-11-28T07:01:42.607Z,222
2022-11-28T07:02:48.690Z,257
2022-11-28T07:03:54.920Z,270
2022-11-28T07:05:01.025Z,300
2022-11-28T07:06:07.210Z,331
2022-11-28T07:07:13.421Z,331
2022-11-28T07:08:19.517Z,347
2022-11-28T07:09:25.723Z,362
2022-11-28T07:10:31.847Z,380
2022-11-28T07:11:38.076Z,387
2022-11-28T07:12:44.207Z,413
2022-11-28T07:13:50.373Z,428
2022-11-28T07:14:56.641Z,446
2022-11-28T07:16:02.673Z,458
2022-11-28T07:17:08.893Z,479
2022-11-28T07:18:15.194Z,499
2022-11-28T07:19:20.535Z,528
2022-11-28T07:20:26.680Z,556
2022-11-28T07:21:32.854Z,579
2022-11-28T07:22:38.981Z,584
2022-11-28T07:23:45.130Z,622
2022-11-28T07:24:51.262Z,713
2022-11-28T07:25:57.509Z,796
2022-11-28T07:27:03.743Z,828
2022-11-28T07:28:09.771Z,846
2022-11-28T07:29:16.000Z,889
2022-11-28T07:30:22.200Z,933
2022-11-28T07:31:28.282Z,1005
2022-11-28T07:32:34.501Z,1054
2022-11-28T07:33:40.648Z,1097
2022-11-28T07:34:46.819Z,1136
2022-11-28T07:35:52.948Z,1155
2022-11-28T07:36:59.186Z,1167
2022-11-28T07:38:05.538Z,1186
2022-11-28T07:39:11.452Z,1200
2022-11-28T07:40:17.630Z,1234
2022-11-28T07:41:23.799Z,1315
2022-11-28T07:42:29.988Z,1351
2022-11-28T07:43:36.124Z,1446
2022-11-28T07:44:42.264Z,1561
2022-11-28T07:45:48.468Z,1677
2022-11-28T07:46:54.719Z,1768
2022-11-28T07:48:00.075Z,1820
2022-11-28T07:49:06.157Z,1890
2022-11-28T07:50:12.319Z,1977
2022-11-28T07:51:18.340Z,2038
2022-11-28T07:52:24.507Z,2100
2022-11-28T07:53:30.504Z,2159
2022-11-28T07:54:36.664Z,2230
2022-11-28T07:55:42.523Z,2265
2022-11-28T07:56:48.726Z,2363
2022-11-28T07:57:54.866Z,2528
2022-11-28T07:59:00.953Z,2693
2022-11-28T08:00:06.984Z,2874
2022-11-28T08:01:13.193Z,3116
2022-11-28T08:02:19.244Z,3314
2022-11-28T08:03:25.275Z,3441
2022-11-28T08:04:31.382Z,3561
2022-11-28T08:05:37.490Z,3639
2022-11-28T08:06:43.659Z,3836
2022-11-28T08:07:49.667Z,3963
2022-11-28T08:08:55.785Z,4133
2022-11-28T08:10:01.799Z,4375
2022-11-28T08:11:07.920Z,4568
2022-11-28T08:12:14.023Z,4701
2022-11-28T08:13:20.058Z,4871
2022-11-28T08:14:26.164Z,5055
2022-11-28T08:15:32.323Z,5230
2022-11-28T08:16:38.452Z,5344
2022-11-28T08:17:44.615Z,5302
2022-11-28T08:18:50.727Z,5257
2022-11-28T08:19:56.928Z,5239
2022-11-28T08:21:03.106Z,5220
2022-11-28T08:22:09.275Z,5153
2022-11-28T08:23:15.426Z,5094
2022-11-28T08:24:21.464Z,5095
2022-11-28T08:25:27.693Z,5120
2022-11-28T08:26:33.868Z,5056
2022-11-28T08:27:40.025Z,5009
2022-11-28T08:28:46.182Z,4949
2022-11-28T08:29:52.420Z,4974
2022-11-28T08:30:57.782Z,4985
2022-11-28T08:32:03.817Z,5111
2022-11-28T08:33:09.868Z,5207
2022-11-28T08:34:15.925Z,5316
2022-11-28T08:35:21.920Z,5393
2022-11-28T08:36:28.114Z,5460
2022-11-28T08:37:34.116Z,5595
2022-11-28T08:38:40.251Z,5818
2022-11-28T08:39:46.290Z,6016
2022-11-28T08:40:52.406Z,6283
2022-11-28T08:41:58.429Z,6427
2022-11-28T08:43:04.567Z,6479
2022-11-28T08:44:10.617Z,6527
2022-11-28T08:45:16.648Z,6613
2022-11-28T08:46:22.731Z,6737
2022-11-28T08:47:28.805Z,6872
2022-11-28T08:48:34.894Z,7003
2022-11-28T08:49:40.973Z,7024
2022-11-28T08:50:47.024Z,7113
2022-11-28T08:51:53.155Z,7143
2022-11-28T08:52:59.176Z,7247
2022-11-28T08:54:05.324Z,7356
2022-11-28T08:55:11.354Z,7400
2022-11-28T08:56:17.429Z,7393
2022-11-28T08:57:23.505Z,7701
2022-11-28T08:58:29.640Z,7830
2022-11-28T08:59:35.763Z,7837
2022-11-28T09:00:42.007Z,7809
2022-11-28T09:01:48.022Z,7725
2022-11-28T09:02:54.215Z,7643
2022-11-28T09:04:00.367Z,7582
2022-11-28T09:05:06.557Z,7483
2022-11-28T09:06:12.720Z,7486
2022-11-28T09:07:18.886Z,7399
2022-11-28T09:08:24.924Z,7433
2022-11-28T09:09:31.121Z,7578
2022-11-28T09:10:37.247Z,7656
2022-11-28T09:11:43.477Z,7962
2022-11-28T09:12:49.676Z,8289
2022-11-28T09:13:54.883Z,8466
2022-11-28T09:15:00.919Z,8417
2022-11-28T09:16:07.025Z,8449
2022-11-28T09:17:13.067Z,8520
2022-11-28T09:18:19.150Z,8606
2022-11-28T09:19:25.257Z,8749
2022-11-28T09:20:31.240Z,8915
2022-11-28T09:21:37.364Z,9020
2022-11-28T09:22:43.366Z,9081
2022-11-28T09:23:49.443Z,9301
2022-11-28T09:24:55.557Z,9568
2022-11-28T09:26:01.536Z,9751
2022-11-28T09:27:07.501Z,9851
2022-11-28T09:28:13.575Z,9981
2022-11-28T09:29:19.723Z,10002
2022-11-28T09:30:25.695Z,10143
2022-11-28T09:31:31.914Z,10299
2022-11-28T09:32:37.927Z,10366
2022-11-28T09:33:43.990Z,10391
2022-11-28T09:34:50.003Z,10486
2022-11-28T09:35:55.996Z,10532
2022-11-28T09:37:02.227Z,10610
2022-11-28T09:38:08.233Z,10617
2022-11-28T09:39:14.311Z,10638
2022-11-28T09:40:20.211Z,10422
2022-11-28T09:41:26.483Z,10195
2022-11-28T09:42:32.507Z,10038
2022-11-28T09:43:38.721Z,9924
2022-11-28T09:44:44.904Z,9983
2022-11-28T09:45:50.892Z,9993
2022-11-28T09:46:57.139Z,10097
2022-11-28T09:48:03.246Z,10088
2022-11-28T09:49:09.360Z,10010
2022-11-28T09:50:15.444Z,9902
2022-11-28T09:51:21.686Z,9823
2022-11-28T09:52:27.800Z,9591
2022-11-28T09:53:33.933Z,9189
2022-11-28T09:54:39.962Z,8584
2022-11-28T09:55:46.330Z,7994
2022-11-28T09:56:51.549Z,7448
2022-11-28T09:57:57.678Z,7013
2022-11-28T09:59:03.662Z,6666
2022-11-28T10:00:09.850Z,6298
2022-11-28T10:01:15.764Z,6016
2022-11-28T10:02:21.824Z,5696
2022-11-28T10:03:27.798Z,5417
2022-11-28T10:04:33.814Z,5183
2022-11-28T10:05:39.919Z,4992
2022-11-28T10:06:45.934Z,4837
2022-11-28T10:07:51.998Z,4752
2022-11-28T10:08:58.053Z,4640
2022-11-28T10:10:04.281Z,4529
2022-11-28T10:11:10.367Z,4457
2022-11-28T10:12:16.376Z,4353
2022-11-28T10:13:22.343Z,4253
2022-11-28T10:14:28.354Z,4180
2022-11-28T10:15:34.535Z,4118
2022-11-28T10:16:40.576Z,4033
2022-11-28T10:17:46.633Z,4007
2022-11-28T10:18:52.616Z,3991
2022-11-28T10:19:58.766Z,3967
2022-11-28T10:21:04.839Z,3954
2022-11-28T10:22:10.957Z,3958
2022-11-28T10:23:16.971Z,3935
2022-11-28T10:24:23.121Z,3929
2022-11-28T10:25:29.319Z,3918
2022-11-28T10:26:35.493Z,3881
2022-11-28T10:27:41.578Z,3851
2022-11-28T10:28:47.770Z,3808
2022-11-28T10:29:53.879Z,3765
2022-11-28T10:31:00.057Z,3718
2022-11-28T10:32:06.226Z,3672
2022-11-28T10:33:12.363Z,3651
2022-11-28T10:34:18.344Z,3609
2022-11-28T10:35:24.612Z,3583
2022-11-28T10:36:30.766Z,3528
2022-11-28T10:37:36.969Z,3495
2022-11-28T10:38:43.179Z,3415
2022-11-28T10:39:48.408Z,3384
2022-11-28T10:40:54.309Z,3356
2022-11-28T10:42:00.542Z,3354
2022-11-28T10:43:06.601Z,3323
2022-11-28T10:44:12.657Z,3263
2022-11-28T10:45:18.711Z,3283
2022-11-28T10:46:24.634Z,3279
2022-11-28T10:47:30.892Z,3319
2022-11-28T10:48:36.777Z,3375
2022-11-28T10:49:43.005Z,3473
2022-11-28T10:50:49.030Z,3563
2022-11-28T10:51:54.973Z,3669
2022-11-28T10:53:01.165Z,3749
2022-11-28T10:54:07.289Z,3826
2022-11-28T10:55:13.313Z,3942
2022-11-28T10:56:19.340Z,4010
2022-11-28T10:57:25.538Z,4033
2022-11-28T10:58:31.367Z,4040
2022-11-28T10:59:37.490Z,4033
2022-11-28T11:00:43.653Z,4033
2022-11-28T11:01:49.614Z,4038
2022-11-28T11:02:55.687Z,4071
2022-11-28T11:04:01.857Z,4102
2022-11-28T11:05:07.863Z,4112
2022-11-28T11:06:13.922Z,4036
2022-11-28T11:07:19.925Z,4024
2022-11-28T11:08:26.237Z,3972
2022-11-28T11:09:32.262Z,3894
2022-11-28T11:10:38.463Z,3795
2022-11-28T11:11:44.477Z,3759
2022-11-28T11:12:50.649Z,3756
2022-11-28T11:13:56.849Z,3780
2022-11-28T11:15:02.990Z,3815
2022-11-28T11:16:09.043Z,3857
2022-11-28T11:17:15.227Z,3872
2022-11-28T11:18:21.351Z,3907
2022-11-28T11:19:27.446Z,3873
2022-11-28T11:20:33.593Z,3843
2022-11-28T11:21:39.843Z,3798
2022-11-28T11:22:45.134Z,3794
2022-11-28T11:23:51.216Z,3774
2022-11-28T11:24:57.171Z,3734
2022-11-28T11:26:03.238Z,3717
2022-11-28T11:27:09.415Z,3717
2022-11-28T11:28:15.460Z,3713
2022-11-28T11:29:21.428Z,3705
2022-11-28T11:30:27.490Z,3713
2022-11-28T11:31:33.543Z,3720
2022-11-28T11:32:39.642Z,3696
2022-11-28T11:33:45.692Z,3647
2022-11-28T11:34:51.842Z,3642
2022-11-28T11:35:57.875Z,3633
2022-11-28T11:37:03.853Z,3618
2022-11-28T11:38:09.906Z,3582
2022-11-28T11:39:15.976Z,3575
2022-11-28T11:40:22.194Z,3564
2022-11-28T11:41:28.173Z,3501
2022-11-28T11:42:34.235Z,3483
2022-11-28T11:43:40.286Z,3471
2022-11-28T11:44:46.389Z,3525
2022-11-28T11:45:52.320Z,3546
2022-11-28T11:46:58.510Z,3541
2022-11-28T11:48:04.426Z,3505
2022-11-28T11:49:10.517Z,3474
2022-11-28T11:50:16.612Z,3442
2022-11-28T11:51:22.777Z,3402
2022-11-28T11:52:29.044Z,3328
2022-11-28T11:53:35.010Z,3293
2022-11-28T11:54:41.327Z,3268
2022-11-28T11:55:47.481Z,3232
2022-11-28T11:56:53.579Z,3166
2022-11-28T11:57:59.755Z,3097
2022-11-28T11:59:05.868Z,3040
2022-11-28T12:00:11.937Z,2997
2022-11-28T12:01:18.184Z,2923
2022-11-28T12:02:24.107Z,2880
2022-11-28T12:03:30.306Z,2840
2022-11-28T12:04:36.495Z,2796
2022-11-28T12:05:41.783Z,2741
2022-11-28T12:06:47.836Z,2685
2022-11-28T12:07:54.014Z,2648
2022-11-28T12:09:00.066Z,2598
2022-11-28T12:10:05.966Z,2577
2022-11-28T12:11:12.191Z,2538
2022-11-28T12:12:18.053Z,2480
2022-11-28T12:13:24.111Z,2372
2022-11-28T12:14:30.320Z,2274
2022-11-28T12:15:36.430Z,2204
2022-11-28T12:16:42.293Z,2162
2022-11-28T12:17:48.494Z,2132
2022-11-28T12:18:54.561Z,2141
2022-11-28T12:20:00.645Z,2141
2022-11-28T12:21:06.724Z,2145
2022-11-28T12:22:12.665Z,2136
2022-11-28T12:23:18.866Z,2116
2022-11-28T12:24:24.716Z,2110
2022-11-28T12:25:30.829Z,2048
2022-11-28T12:26:36.828Z,2017
2022-11-28T12:27:42.875Z,1992
2022-11-28T12:28:48.936Z,1957
2022-11-28T12:29:55.238Z,1964
2022-11-28T12:31:01.278Z,1931
2022-11-28T12:32:07.283Z,1958
2022-11-28T12:33:13.380Z,1973
2022-11-28T12:34:19.587Z,1986
2022-11-28T12:35:25.599Z,2008
2022-11-28T12:36:31.791Z,2029
2022-11-28T12:37:38.050Z,2046
2022-11-28T12:38:44.107Z,2024
2022-11-28T12:39:50.204Z,2001
2022-11-28T12:40:56.223Z,2013
2022-11-28T12:42:02.379Z,1999
2022-11-28T12:43:08.510Z,1981
2022-11-28T12:44:14.636Z,1956
2022-11-28T12:45:20.764Z,1950
2022-11-28T12:46:26.901Z,1975
2022-11-28T12:47:33.168Z,1974
2022-11-28T12:48:38.626Z,1979
2022-11-28T12:49:44.631Z,1971
2022-11-28T12:50:50.755Z,1979
2022-11-28T12:51:56.941Z,1953
2022-11-28T12:53:03.029Z,1948
2022-11-28T12:54:09.283Z,1939
2022-11-28T12:55:15.293Z,1928
2022-11-28T12:56:21.584Z,1936
2022-11-28T12:57:27.823Z,1946
2022-11-28T12:58:33.860Z,1942
2022-11-28T12:59:40.064Z,1921
2022-11-28T13:00:46.169Z,1883
2022-11-28T13:01:52.271Z,1893
2022-11-28T13:02:58.269Z,1913
2022-11-28T13:04:04.593Z,1902
2022-11-28T13:05:10.522Z,1905
2022-11-28T13:06:16.836Z,1917
2022-11-28T13:07:23.000Z,1958
2022-11-28T13:08:29.039Z,1978
2022-11-28T13:09:35.068Z,1985
2022-11-28T13:10:41.250Z,2012
2022-11-28T13:11:47.401Z,2047
2022-11-28T13:12:53.493Z,2060
2022-11-28T13:13:59.669Z,2068
2022-11-28T13:15:05.721Z,2058
2022-11-28T13:16:12.152Z,2043
2022-11-28T13:17:17.426Z,2032
2022-11-28T13:18:23.527Z,2021
2022-11-28T13:19:29.694Z,1992
2022-11-28T13:20:35.666Z,1955
2022-11-28T13:21:41.855Z,1927
2022-11-28T13:22:48.068Z,1890
2022-11-28T13:23:54.180Z,1854
2022-11-28T13:25:00.416Z,1811
2022-11-28T13:26:06.456Z,1790
2022-11-28T13:27:12.461Z,1770
2022-11-28T13:28:18.598Z,1796
2022-11-28T13:29:24.741Z,1776
2022-11-28T13:30:30.871Z,1804
2022-11-28T13:31:37.077Z,1804
2022-11-28T13:32:43.209Z,1821
2022-11-28T13:33:49.276Z,1829
2022-11-28T13:34:55.615Z,1836
2022-11-28T13:36:01.740Z,1843
2022-11-28T13:37:07.697Z,1815
2022-11-28T13:38:14.034Z,1803
2022-11-28T13:39:19.975Z,1776
2022-11-28T13:40:26.172Z,1730
2022-11-28T13:41:32.253Z,1724
2022-11-28T13:42:38.441Z,1709
2022-11-28T13:43:44.766Z,1690
2022-11-28T13:44:51.016Z,1654
2022-11-28T13:45:56.160Z,1643
2022-11-28T13:47:02.080Z,1633
2022-11-28T13:48:08.273Z,1619
2022-11-28T13:49:14.408Z,1602
2022-11-28T13:50:20.280Z,1580
2022-11-28T13:51:26.370Z,1576
2022-11-28T13:52:32.514Z,1576
2022-11-28T13:53:38.455Z,1587
2022-11-28T13:54:44.651Z,1590
2022-11-28T13:55:50.573Z,1584
2022-11-28T13:56:56.818Z,1582
2022-11-28T13:58:02.815Z,1559
2022-11-28T13:59:08.765Z,1552
2022-11-28T14:00:15.005Z,1551
2022-11-28T14:01:20.899Z,1513
2022-11-28T14:02:27.117Z,1515
2022-11-28T14:03:33.192Z,1491
2022-11-28T14:04:39.245Z,1479
2022-11-28T14:05:45.199Z,1467
2022-11-28T14:06:51.216Z,1447
2022-11-28T14:07:57.267Z,1423
2022-11-28T14:09:03.353Z,1395
2022-11-28T14:10:09.425Z,1388
2022-11-28T14:11:15.522Z,1343
2022-11-28T14:12:21.707Z,1315
2022-11-28T14:13:27.716Z,1282
2022-11-28T14:14:33.982Z,1263
2022-11-28T14:15:39.176Z,1223
2022-11-28T14:16:45.221Z,1189
2022-11-28T14:17:51.116Z,1182
2022-11-28T14:18:57.239Z,1157
2022-11-28T14:20:03.417Z,1118
2022-11-28T14:21:09.493Z,1102
2022-11-28T14:22:15.556Z,1054
2022-11-28T14:23:21.606Z,1033
2022-11-28T14:24:27.485Z,994
2022-11-28T14:25:33.545Z,959
2022-11-28T14:26:39.748Z,933
2022-11-28T14:27:45.671Z,895
2022-11-28T14:28:51.892Z,856
2022-11-28T14:29:57.788Z,830
2022-11-28T14:31:03.987Z,790
2022-11-28T14:32:10.073Z,755
2022-11-28T14:33:15.975Z,720
2022-11-28T14:34:22.162Z,664
2022-11-28T14:35:28.138Z,637
2022-11-28T14:36:34.174Z,590
2022-11-28T14:37:40.379Z,556
2022-11-28T14:38:46.280Z,535
2022-11-28T14:39:52.453Z,502
2022-11-28T14:40:58.541Z,465
2022-11-28T14:42:04.458Z,440
2022-11-28T14:43:10.643Z,451
2022-11-28T14:44:16.915Z,422
2022-11-28T14:45:22.885Z,416
2022-11-28T14:46:29.027Z,367
2022-11-28T14:47:35.164Z,344
2022-11-28T14:48:41.299Z,341
2022-11-28T14:49:47.572Z,331
2022-11-28T14:50:53.588Z,317
2022-11-28T14:51:59.797Z,294
2022-11-28T14:53:06.059Z,284
2022-11-28T14:54:12.166Z,261
2022-11-28T14:55:18.160Z,244
2022-11-28T14:56:24.447Z,237
2022-11-28T14:57:30.746Z,204
2022-11-28T14:58:35.813Z,200
2022-11-28T14:59:41.982Z,185
2022-11-28T15:00:47.932Z,171
2022-11-28T15:01:54.010Z,164
2022-11-28T15:03:00.198Z,145
2022-11-28T15:04:06.303Z,136
2022-11-28T15:05:12.213Z,130
2022-11-28T15:06:18.449Z,121
2022-11-28T15:07:24.351Z,115
2022-11-28T15:08:30.584Z,106
2022-11-28T15:09:36.591Z,101
2022-11-28T15:10:42.560Z,90
2022-11-28T15:11:48.817Z,68
2022-11-28T15:12:54.692Z,72
2022-11-28T15:14:00.937Z,55
2022-11-28T15:15:07.069Z,50
2022-11-28T15:16:12.894Z,58
2022-11-28T15:17:19.014Z,45
2022-11-28T15:18:25.158Z,41
2022-11-28T15:19:31.107Z,36
2022-11-28T15:20:37.185Z,36
2022-11-28T15:21:43.261Z,19
2022-11-28T15:22:49.330Z,14
2022-11-28T15:23:55.400Z,18